sensor_id;sensor_type;location;lat;lon;timestamp;P1;durP1;ratioP1;P2;durP2;ratioP2
75059;SDS011;63640;59.264;18.116;2023-02-28T00:01:20;5.57;;;1.80;;
75059;SDS011;63640;59.264;18.116;2023-02-28T00:03:46;5.15;;;1.92;;
75059;SDS011;63640;59.264;18.116;2023-02-28T00:06:11;6.28;;;2.10;;
75059;SDS011;63640;59.264;18.116;2023-02-28T00:08:37;15.00;;;2.42;;
75059;SDS011;63640;59.264;18.116;2023-02-28T00:11:03;7.18;;;2.20;;
75059;SDS011;63640;59.264;18.116;2023-02-28T00:13:30;5.30;;;1.80;;
75059;SDS011;63640;59.264;18.116;2023-02-28T00:16:00;6.07;;;2.10;;
75059;SDS011;63640;59.264;18.116;2023-02-28T00:18:29;7.43;;;1.73;;
75059;SDS011;63640;59.264;18.116;2023-02-28T00:20:55;7.13;;;1.90;;
75059;SDS011;63640;59.264;18.116;2023-02-28T00:23:21;6.10;;;2.22;;
75059;SDS011;63640;59.264;18.116;2023-02-28T00:25:46;6.88;;;2.10;;
75059;SDS011;63640;59.264;18.116;2023-02-28T00:28:12;7.38;;;2.25;;
75059;SDS011;63640;59.264;18.116;2023-02-28T00:30:37;4.72;;;1.80;;
75059;SDS011;63640;59.264;18.116;2023-02-28T00:33:03;6.53;;;1.90;;
75059;SDS011;63640;59.264;18.116;2023-02-28T00:35:28;4.93;;;1.73;;
75059;SDS011;63640;59.264;18.116;2023-02-28T00:37:54;4.75;;;1.73;;
75059;SDS011;63640;59.264;18.116;2023-02-28T00:40:19;4.50;;;1.60;;
75059;SDS011;63640;59.264;18.116;2023-02-28T00:42:45;4.30;;;1.50;;
75059;SDS011;63640;59.264;18.116;2023-02-28T00:45:11;4.72;;;1.58;;
75059;SDS011;63640;59.264;18.116;2023-02-28T00:47:36;3.80;;;1.10;;
75059;SDS011;63640;59.264;18.116;2023-02-28T00:50:02;3.72;;;1.00;;
75059;SDS011;63640;59.264;18.116;2023-02-28T00:52:28;3.92;;;0.90;;
75059;SDS011;63640;59.264;18.116;2023-02-28T00:54:54;2.72;;;0.93;;
75059;SDS011;63640;59.264;18.116;2023-02-28T00:57:20;2.72;;;0.80;;
75059;SDS011;63640;59.264;18.116;2023-02-28T00:59:45;2.85;;;0.80;;
75059;SDS011;63640;59.264;18.116;2023-02-28T01:02:11;2.53;;;0.85;;
75059;SDS011;63640;59.264;18.116;2023-02-28T01:04:37;3.50;;;1.00;;
75059;SDS011;63640;59.264;18.116;2023-02-28T01:07:02;3.22;;;0.88;;
75059;SDS011;63640;59.264;18.116;2023-02-28T01:09:29;3.00;;;0.95;;
75059;SDS011;63640;59.264;18.116;2023-02-28T01:11:55;3.35;;;1.08;;
75059;SDS011;63640;59.264;18.116;2023-02-28T01:14:20;3.25;;;0.85;;
75059;SDS011;63640;59.264;18.116;2023-02-28T01:16:46;3.58;;;1.10;;
75059;SDS011;63640;59.264;18.116;2023-02-28T01:19:11;4.15;;;1.17;;
75059;SDS011;63640;59.264;18.116;2023-02-28T01:21:37;3.03;;;0.90;;
75059;SDS011;63640;59.264;18.116;2023-02-28T01:24:03;3.95;;;1.02;;
75059;SDS011;63640;59.264;18.116;2023-02-28T01:26:29;2.60;;;0.82;;
75059;SDS011;63640;59.264;18.116;2023-02-28T01:28:55;3.83;;;1.10;;
75059;SDS011;63640;59.264;18.116;2023-02-28T01:31:21;2.63;;;0.88;;
75059;SDS011;63640;59.264;18.116;2023-02-28T01:33:47;4.05;;;0.98;;
75059;SDS011;63640;59.264;18.116;2023-02-28T01:36:14;2.38;;;0.77;;
75059;SDS011;63640;59.264;18.116;2023-02-28T01:38:44;2.50;;;0.80;;
75059;SDS011;63640;59.264;18.116;2023-02-28T01:41:15;1.92;;;0.70;;
75059;SDS011;63640;59.264;18.116;2023-02-28T01:46:14;2.47;;;0.90;;
75059;SDS011;63640;59.264;18.116;2023-02-28T01:48:42;3.10;;;1.00;;
75059;SDS011;63640;59.264;18.116;2023-02-28T01:51:13;2.53;;;0.90;;
75059;SDS011;63640;59.264;18.116;2023-02-28T01:53:42;1.48;;;0.68;;
75059;SDS011;63640;59.264;18.116;2023-02-28T01:56:12;3.28;;;0.95;;
75059;SDS011;63640;59.264;18.116;2023-02-28T01:58:46;3.72;;;1.00;;
75059;SDS011;63640;59.264;18.116;2023-02-28T02:01:12;2.05;;;0.68;;
75059;SDS011;63640;59.264;18.116;2023-02-28T02:03:46;2.53;;;0.90;;
75059;SDS011;63640;59.264;18.116;2023-02-28T02:06:30;2.97;;;0.80;;
75059;SDS011;63640;59.264;18.116;2023-02-28T02:08:59;2.15;;;0.70;;
75059;SDS011;63640;59.264;18.116;2023-02-28T02:11:25;2.03;;;0.73;;
75059;SDS011;63640;59.264;18.116;2023-02-28T02:19:14;1.80;;;0.75;;
75059;SDS011;63640;59.264;18.116;2023-02-28T02:35:34;2.08;;;0.63;;
75059;SDS011;63640;59.264;18.116;2023-02-28T02:43:48;1.77;;;0.93;;
75059;SDS011;63640;59.264;18.116;2023-02-28T02:46:20;2.95;;;0.80;;
75059;SDS011;63640;59.264;18.116;2023-02-28T02:48:53;2.30;;;0.70;;
75059;SDS011;63640;59.264;18.116;2023-02-28T02:51:20;2.15;;;0.75;;
75059;SDS011;63640;59.264;18.116;2023-02-28T02:53:57;1.38;;;0.68;;
75059;SDS011;63640;59.264;18.116;2023-02-28T02:56:28;2.67;;;0.73;;
75059;SDS011;63640;59.264;18.116;2023-02-28T02:58:56;2.28;;;0.80;;
75059;SDS011;63640;59.264;18.116;2023-02-28T03:01:27;3.17;;;1.10;;
75059;SDS011;63640;59.264;18.116;2023-02-28T03:03:57;3.85;;;0.70;;
75059;SDS011;63640;59.264;18.116;2023-02-28T03:06:25;1.05;;;0.50;;
75059;SDS011;63640;59.264;18.116;2023-02-28T03:08:51;2.08;;;0.70;;
75059;SDS011;63640;59.264;18.116;2023-02-28T03:11:16;2.13;;;0.70;;
75059;SDS011;63640;59.264;18.116;2023-02-28T03:13:51;2.50;;;0.80;;
75059;SDS011;63640;59.264;18.116;2023-02-28T03:27:49;2.38;;;0.80;;
75059;SDS011;63640;59.264;18.116;2023-02-28T03:35:39;1.60;;;0.60;;
75059;SDS011;63640;59.264;18.116;2023-02-28T03:38:15;1.73;;;0.60;;
75059;SDS011;63640;59.264;18.116;2023-02-28T03:40:46;2.75;;;0.80;;
75059;SDS011;63640;59.264;18.116;2023-02-28T03:43:24;1.73;;;0.70;;
75059;SDS011;63640;59.264;18.116;2023-02-28T03:45:53;2.03;;;0.75;;
75059;SDS011;63640;59.264;18.116;2023-02-28T03:48:21;2.40;;;0.88;;
75059;SDS011;63640;59.264;18.116;2023-02-28T03:50:51;4.03;;;0.80;;
75059;SDS011;63640;59.264;18.116;2023-02-28T03:53:29;1.65;;;0.60;;
75059;SDS011;63640;59.264;18.116;2023-02-28T03:56:21;2.50;;;0.80;;
75059;SDS011;63640;59.264;18.116;2023-02-28T03:59:22;2.40;;;0.70;;
75059;SDS011;63640;59.264;18.116;2023-02-28T04:01:44;2.28;;;0.65;;
75059;SDS011;63640;59.264;18.116;2023-02-28T04:04:10;2.92;;;0.90;;
75059;SDS011;63640;59.264;18.116;2023-02-28T04:06:37;2.35;;;0.73;;
75059;SDS011;63640;59.264;18.116;2023-02-28T04:09:03;2.78;;;0.80;;
75059;SDS011;63640;59.264;18.116;2023-02-28T04:13:55;2.03;;;0.90;;
75059;SDS011;63640;59.264;18.116;2023-02-28T04:16:21;2.53;;;0.80;;
75059;SDS011;63640;59.264;18.116;2023-02-28T04:18:46;2.38;;;0.70;;
75059;SDS011;63640;59.264;18.116;2023-02-28T04:21:12;2.33;;;0.80;;
75059;SDS011;63640;59.264;18.116;2023-02-28T04:23:38;0.82;;;0.50;;
75059;SDS011;63640;59.264;18.116;2023-02-28T04:26:03;1.55;;;0.63;;
75059;SDS011;63640;59.264;18.116;2023-02-28T04:28:30;1.70;;;0.70;;
75059;SDS011;63640;59.264;18.116;2023-02-28T04:30:56;2.03;;;0.68;;
75059;SDS011;63640;59.264;18.116;2023-02-28T04:33:22;2.22;;;0.70;;
75059;SDS011;63640;59.264;18.116;2023-02-28T04:35:50;2.33;;;0.80;;
75059;SDS011;63640;59.264;18.116;2023-02-28T04:38:34;1.95;;;0.70;;
75059;SDS011;63640;59.264;18.116;2023-02-28T04:41:01;1.75;;;0.60;;
75059;SDS011;63640;59.264;18.116;2023-02-28T04:43:27;2.70;;;0.82;;
75059;SDS011;63640;59.264;18.116;2023-02-28T04:45:53;1.83;;;0.80;;
75059;SDS011;63640;59.264;18.116;2023-02-28T04:48:24;2.05;;;0.70;;
75059;SDS011;63640;59.264;18.116;2023-02-28T04:50:51;1.75;;;0.70;;
75059;SDS011;63640;59.264;18.116;2023-02-28T04:53:16;2.00;;;0.73;;
75059;SDS011;63640;59.264;18.116;2023-02-28T04:55:42;2.28;;;0.70;;
75059;SDS011;63640;59.264;18.116;2023-02-28T04:58:08;2.60;;;0.82;;
75059;SDS011;63640;59.264;18.116;2023-02-28T05:00:33;2.80;;;0.82;;
75059;SDS011;63640;59.264;18.116;2023-02-28T05:02:59;1.90;;;0.70;;
75059;SDS011;63640;59.264;18.116;2023-02-28T05:05:25;2.55;;;0.80;;
75059;SDS011;63640;59.264;18.116;2023-02-28T05:07:50;1.83;;;0.57;;
75059;SDS011;63640;59.264;18.116;2023-02-28T05:10:16;2.15;;;0.60;;
75059;SDS011;63640;59.264;18.116;2023-02-28T05:12:41;1.02;;;0.40;;
75059;SDS011;63640;59.264;18.116;2023-02-28T05:15:08;3.40;;;1.00;;
75059;SDS011;63640;59.264;18.116;2023-02-28T05:17:38;1.73;;;0.52;;
75059;SDS011;63640;59.264;18.116;2023-02-28T05:20:03;2.72;;;0.88;;
75059;SDS011;63640;59.264;18.116;2023-02-28T05:22:30;2.42;;;0.88;;
75059;SDS011;63640;59.264;18.116;2023-02-28T05:24:55;2.72;;;0.70;;
75059;SDS011;63640;59.264;18.116;2023-02-28T05:27:21;1.60;;;0.60;;
75059;SDS011;63640;59.264;18.116;2023-02-28T05:29:46;2.13;;;0.70;;
75059;SDS011;63640;59.264;18.116;2023-02-28T05:32:12;2.00;;;0.80;;
75059;SDS011;63640;59.264;18.116;2023-02-28T05:34:38;1.92;;;0.70;;
75059;SDS011;63640;59.264;18.116;2023-02-28T05:37:05;1.75;;;0.65;;
75059;SDS011;63640;59.264;18.116;2023-02-28T05:39:31;1.85;;;0.70;;
75059;SDS011;63640;59.264;18.116;2023-02-28T05:41:58;2.65;;;1.02;;
75059;SDS011;63640;59.264;18.116;2023-02-28T05:44:23;1.50;;;0.60;;
75059;SDS011;63640;59.264;18.116;2023-02-28T05:46:49;4.90;;;0.70;;
75059;SDS011;63640;59.264;18.116;2023-02-28T05:49:14;2.65;;;0.63;;
75059;SDS011;63640;59.264;18.116;2023-02-28T05:51:40;2.30;;;0.80;;
75059;SDS011;63640;59.264;18.116;2023-02-28T05:54:06;3.10;;;0.80;;
75059;SDS011;63640;59.264;18.116;2023-02-28T05:56:32;3.67;;;0.90;;
75059;SDS011;63640;59.264;18.116;2023-02-28T05:58:59;3.05;;;0.90;;
75059;SDS011;63640;59.264;18.116;2023-02-28T06:01:41;2.60;;;1.00;;
75059;SDS011;63640;59.264;18.116;2023-02-28T06:04:13;1.90;;;0.63;;
75059;SDS011;63640;59.264;18.116;2023-02-28T06:06:43;2.58;;;0.80;;
75059;SDS011;63640;59.264;18.116;2023-02-28T06:09:09;2.35;;;0.80;;
75059;SDS011;63640;59.264;18.116;2023-02-28T06:11:35;3.10;;;0.80;;
75059;SDS011;63640;59.264;18.116;2023-02-28T06:14:02;1.80;;;0.70;;
75059;SDS011;63640;59.264;18.116;2023-02-28T06:16:28;2.05;;;0.82;;
75059;SDS011;63640;59.264;18.116;2023-02-28T06:18:56;2.30;;;0.80;;
75059;SDS011;63640;59.264;18.116;2023-02-28T06:21:22;6.97;;;0.90;;
75059;SDS011;63640;59.264;18.116;2023-02-28T06:23:49;1.90;;;0.70;;
75059;SDS011;63640;59.264;18.116;2023-02-28T06:26:14;1.73;;;0.70;;
75059;SDS011;63640;59.264;18.116;2023-02-28T06:28:40;3.40;;;0.90;;
75059;SDS011;63640;59.264;18.116;2023-02-28T06:31:06;2.28;;;0.93;;
75059;SDS011;63640;59.264;18.116;2023-02-28T06:33:33;1.67;;;0.70;;
75059;SDS011;63640;59.264;18.116;2023-02-28T06:35:59;3.90;;;0.70;;
75059;SDS011;63640;59.264;18.116;2023-02-28T06:38:24;2.45;;;0.68;;
75059;SDS011;63640;59.264;18.116;2023-02-28T06:40:56;3.08;;;0.93;;
75059;SDS011;63640;59.264;18.116;2023-02-28T06:43:23;2.05;;;0.70;;
75059;SDS011;63640;59.264;18.116;2023-02-28T06:45:49;3.35;;;0.90;;
75059;SDS011;63640;59.264;18.116;2023-02-28T06:48:15;1.65;;;0.68;;
75059;SDS011;63640;59.264;18.116;2023-02-28T06:50:40;1.48;;;0.60;;
75059;SDS011;63640;59.264;18.116;2023-02-28T06:53:06;1.98;;;0.70;;
75059;SDS011;63640;59.264;18.116;2023-02-28T06:55:31;1.60;;;0.50;;
75059;SDS011;63640;59.264;18.116;2023-02-28T06:57:57;1.67;;;0.63;;
75059;SDS011;63640;59.264;18.116;2023-02-28T07:00:23;1.42;;;0.60;;
75059;SDS011;63640;59.264;18.116;2023-02-28T07:02:50;1.95;;;0.70;;
75059;SDS011;63640;59.264;18.116;2023-02-28T07:05:15;2.65;;;0.70;;
75059;SDS011;63640;59.264;18.116;2023-02-28T07:07:41;1.70;;;0.60;;
75059;SDS011;63640;59.264;18.116;2023-02-28T07:10:10;1.67;;;0.60;;
75059;SDS011;63640;59.264;18.116;2023-02-28T07:12:36;2.13;;;0.80;;
75059;SDS011;63640;59.264;18.116;2023-02-28T07:15:02;2.38;;;0.70;;
75059;SDS011;63640;59.264;18.116;2023-02-28T07:17:29;1.10;;;0.52;;
75059;SDS011;63640;59.264;18.116;2023-02-28T07:19:54;1.98;;;0.70;;
75059;SDS011;63640;59.264;18.116;2023-02-28T07:22:20;1.48;;;0.50;;
75059;SDS011;63640;59.264;18.116;2023-02-28T07:24:45;1.42;;;0.60;;
75059;SDS011;63640;59.264;18.116;2023-02-28T07:27:11;2.72;;;0.77;;
75059;SDS011;63640;59.264;18.116;2023-02-28T07:29:36;2.88;;;0.77;;
75059;SDS011;63640;59.264;18.116;2023-02-28T07:32:03;1.17;;;0.57;;
75059;SDS011;63640;59.264;18.116;2023-02-28T07:34:28;3.33;;;0.82;;
75059;SDS011;63640;59.264;18.116;2023-02-28T07:36:54;1.65;;;0.60;;
75059;SDS011;63640;59.264;18.116;2023-02-28T07:39:21;2.05;;;0.60;;
75059;SDS011;63640;59.264;18.116;2023-02-28T07:41:47;1.70;;;0.60;;
75059;SDS011;63640;59.264;18.116;2023-02-28T07:44:12;2.22;;;0.77;;
75059;SDS011;63640;59.264;18.116;2023-02-28T07:46:38;0.82;;;0.40;;
75059;SDS011;63640;59.264;18.116;2023-02-28T07:49:04;2.80;;;0.90;;
75059;SDS011;63640;59.264;18.116;2023-02-28T07:51:30;2.13;;;0.60;;
75059;SDS011;63640;59.264;18.116;2023-02-28T07:53:56;2.28;;;0.60;;
75059;SDS011;63640;59.264;18.116;2023-02-28T07:56:22;1.70;;;0.63;;
75059;SDS011;63640;59.264;18.116;2023-02-28T07:58:48;1.95;;;0.60;;
75059;SDS011;63640;59.264;18.116;2023-02-28T08:01:14;2.33;;;0.65;;
75059;SDS011;63640;59.264;18.116;2023-02-28T08:03:40;1.70;;;0.60;;
75059;SDS011;63640;59.264;18.116;2023-02-28T08:06:07;1.45;;;0.50;;
75059;SDS011;63640;59.264;18.116;2023-02-28T08:08:35;1.67;;;0.60;;
75059;SDS011;63640;59.264;18.116;2023-02-28T08:11:01;2.28;;;0.70;;
75059;SDS011;63640;59.264;18.116;2023-02-28T08:13:28;1.85;;;0.60;;
75059;SDS011;63640;59.264;18.116;2023-02-28T08:15:54;2.03;;;0.50;;
75059;SDS011;63640;59.264;18.116;2023-02-28T08:18:21;2.95;;;0.70;;
75059;SDS011;63640;59.264;18.116;2023-02-28T08:20:47;0.77;;;0.40;;
75059;SDS011;63640;59.264;18.116;2023-02-28T08:23:13;0.95;;;0.50;;
75059;SDS011;63640;59.264;18.116;2023-02-28T08:25:38;2.60;;;0.63;;
75059;SDS011;63640;59.264;18.116;2023-02-28T08:28:04;3.03;;;0.80;;
75059;SDS011;63640;59.264;18.116;2023-02-28T08:30:30;1.05;;;0.50;;
75059;SDS011;63640;59.264;18.116;2023-02-28T08:32:55;1.83;;;0.57;;
75059;SDS011;63640;59.264;18.116;2023-02-28T08:35:21;1.27;;;0.60;;
75059;SDS011;63640;59.264;18.116;2023-02-28T08:37:47;3.35;;;0.65;;
75059;SDS011;63640;59.264;18.116;2023-02-28T08:40:14;2.22;;;0.60;;
75059;SDS011;63640;59.264;18.116;2023-02-28T08:42:46;1.55;;;0.70;;
75059;SDS011;63640;59.264;18.116;2023-02-28T08:45:12;1.50;;;0.60;;
75059;SDS011;63640;59.264;18.116;2023-02-28T08:47:39;2.25;;;0.60;;
75059;SDS011;63640;59.264;18.116;2023-02-28T08:50:04;2.38;;;0.60;;
75059;SDS011;63640;59.264;18.116;2023-02-28T08:52:30;3.33;;;0.70;;
75059;SDS011;63640;59.264;18.116;2023-02-28T08:54:56;4.35;;;0.60;;
75059;SDS011;63640;59.264;18.116;2023-02-28T08:57:21;1.25;;;0.50;;
75059;SDS011;63640;59.264;18.116;2023-02-28T08:59:47;3.35;;;0.70;;
75059;SDS011;63640;59.264;18.116;2023-02-28T09:02:13;3.05;;;0.70;;
75059;SDS011;63640;59.264;18.116;2023-02-28T09:04:39;3.03;;;0.73;;
75059;SDS011;63640;59.264;18.116;2023-02-28T09:07:05;2.33;;;0.50;;
75059;SDS011;63640;59.264;18.116;2023-02-28T09:09:31;3.60;;;0.70;;
75059;SDS011;63640;59.264;18.116;2023-02-28T09:11:57;2.15;;;0.80;;
75059;SDS011;63640;59.264;18.116;2023-02-28T09:14:22;3.15;;;0.60;;
75059;SDS011;63640;59.264;18.116;2023-02-28T09:16:48;3.95;;;0.77;;
75059;SDS011;63640;59.264;18.116;2023-02-28T09:19:13;1.85;;;0.57;;
75059;SDS011;63640;59.264;18.116;2023-02-28T09:21:39;2.13;;;0.60;;
75059;SDS011;63640;59.264;18.116;2023-02-28T09:24:05;4.10;;;0.57;;
75059;SDS011;63640;59.264;18.116;2023-02-28T09:26:31;2.70;;;0.60;;
75059;SDS011;63640;59.264;18.116;2023-02-28T09:28:56;1.83;;;0.57;;
75059;SDS011;63640;59.264;18.116;2023-02-28T09:31:25;3.55;;;0.60;;
75059;SDS011;63640;59.264;18.116;2023-02-28T09:33:52;2.10;;;0.70;;
75059;SDS011;63640;59.264;18.116;2023-02-28T09:36:20;1.08;;;0.60;;
75059;SDS011;63640;59.264;18.116;2023-02-28T09:38:46;1.00;;;0.45;;
75059;SDS011;63640;59.264;18.116;2023-02-28T09:41:16;1.48;;;0.50;;
75059;SDS011;63640;59.264;18.116;2023-02-28T09:43:45;3.15;;;0.60;;
75059;SDS011;63640;59.264;18.116;2023-02-28T09:49:17;0.88;;;0.50;;
75059;SDS011;63640;59.264;18.116;2023-02-28T09:54:21;1.83;;;0.70;;
75059;SDS011;63640;59.264;18.116;2023-02-28T10:04:59;1.77;;;0.70;;
75059;SDS011;63640;59.264;18.116;2023-02-28T10:10:15;0.95;;;0.30;;
75059;SDS011;63640;59.264;18.116;2023-02-28T10:12:43;1.63;;;0.57;;
75059;SDS011;63640;59.264;18.116;2023-02-28T10:15:13;1.02;;;0.50;;
75059;SDS011;63640;59.264;18.116;2023-02-28T10:17:41;3.55;;;0.73;;
75059;SDS011;63640;59.264;18.116;2023-02-28T10:20:12;4.50;;;0.60;;
75059;SDS011;63640;59.264;18.116;2023-02-28T10:25:36;1.33;;;0.50;;
75059;SDS011;63640;59.264;18.116;2023-02-28T10:28:13;3.22;;;0.50;;
75059;SDS011;63640;59.264;18.116;2023-02-28T10:30:50;2.38;;;0.70;;
75059;SDS011;63640;59.264;18.116;2023-02-28T10:33:24;2.67;;;0.60;;
75059;SDS011;63640;59.264;18.116;2023-02-28T10:35:52;1.45;;;0.50;;
75059;SDS011;63640;59.264;18.116;2023-02-28T10:38:21;5.30;;;0.73;;
75059;SDS011;63640;59.264;18.116;2023-02-28T10:40:48;1.70;;;0.70;;
75059;SDS011;63640;59.264;18.116;2023-02-28T10:45:40;3.58;;;0.68;;
75059;SDS011;63640;59.264;18.116;2023-02-28T11:01:22;1.92;;;0.60;;
75059;SDS011;63640;59.264;18.116;2023-02-28T11:03:59;1.92;;;0.55;;
75059;SDS011;63640;59.264;18.116;2023-02-28T11:06:31;3.20;;;0.65;;
75059;SDS011;63640;59.264;18.116;2023-02-28T11:09:03;3.15;;;0.88;;
75059;SDS011;63640;59.264;18.116;2023-02-28T11:11:30;2.85;;;0.68;;
75059;SDS011;63640;59.264;18.116;2023-02-28T11:14:06;2.70;;;0.50;;
75059;SDS011;63640;59.264;18.116;2023-02-28T11:16:45;3.13;;;0.70;;
75059;SDS011;63640;59.264;18.116;2023-02-28T11:19:16;2.33;;;0.45;;
75059;SDS011;63640;59.264;18.116;2023-02-28T11:21:57;1.98;;;0.73;;
75059;SDS011;63640;59.264;18.116;2023-02-28T11:24:28;3.28;;;0.60;;
75059;SDS011;63640;59.264;18.116;2023-02-28T11:26:56;1.67;;;0.55;;
75059;SDS011;63640;59.264;18.116;2023-02-28T11:29:23;1.63;;;0.70;;
75059;SDS011;63640;59.264;18.116;2023-02-28T11:34:36;2.63;;;0.65;;
75059;SDS011;63640;59.264;18.116;2023-02-28T11:37:02;2.67;;;0.45;;
75059;SDS011;63640;59.264;18.116;2023-02-28T11:39:32;2.83;;;0.73;;
75059;SDS011;63640;59.264;18.116;2023-02-28T11:45:21;2.45;;;0.50;;
75059;SDS011;63640;59.264;18.116;2023-02-28T11:48:02;1.88;;;0.50;;
75059;SDS011;63640;59.264;18.116;2023-02-28T11:56:44;2.25;;;0.52;;
75059;SDS011;63640;59.264;18.116;2023-02-28T12:18:37;3.55;;;0.65;;
75059;SDS011;63640;59.264;18.116;2023-02-28T12:21:31;1.60;;;0.50;;
75059;SDS011;63640;59.264;18.116;2023-02-28T12:24:17;3.85;;;0.80;;
75059;SDS011;63640;59.264;18.116;2023-02-28T12:26:48;3.70;;;0.88;;
75059;SDS011;63640;59.264;18.116;2023-02-28T12:29:22;4.57;;;0.80;;
75059;SDS011;63640;59.264;18.116;2023-02-28T12:31:59;2.20;;;0.60;;
75059;SDS011;63640;59.264;18.116;2023-02-28T12:34:34;2.83;;;0.88;;
75059;SDS011;63640;59.264;18.116;2023-02-28T12:37:10;3.58;;;0.70;;
75059;SDS011;63640;59.264;18.116;2023-02-28T12:39:43;3.65;;;1.05;;
75059;SDS011;63640;59.264;18.116;2023-02-28T12:42:11;2.53;;;0.70;;
75059;SDS011;63640;59.264;18.116;2023-02-28T12:44:52;3.40;;;0.80;;
75059;SDS011;63640;59.264;18.116;2023-02-28T12:47:20;6.43;;;0.80;;
75059;SDS011;63640;59.264;18.116;2023-02-28T12:49:50;1.98;;;0.55;;
75059;SDS011;63640;59.264;18.116;2023-02-28T12:52:24;2.55;;;0.80;;
75059;SDS011;63640;59.264;18.116;2023-02-28T12:55:00;1.08;;;0.52;;
75059;SDS011;63640;59.264;18.116;2023-02-28T12:57:46;0.88;;;0.40;;
75059;SDS011;63640;59.264;18.116;2023-02-28T13:00:16;2.40;;;0.70;;
75059;SDS011;63640;59.264;18.116;2023-02-28T13:10:57;5.95;;;0.70;;
75059;SDS011;63640;59.264;18.116;2023-02-28T13:13:23;1.85;;;0.50;;
75059;SDS011;63640;59.264;18.116;2023-02-28T13:18:47;2.83;;;0.88;;
75059;SDS011;63640;59.264;18.116;2023-02-28T13:26:32;3.42;;;0.70;;
75059;SDS011;63640;59.264;18.116;2023-02-28T13:34:30;1.85;;;0.70;;
75059;SDS011;63640;59.264;18.116;2023-02-28T13:39:48;2.97;;;0.80;;
75059;SDS011;63640;59.264;18.116;2023-02-28T13:47:39;3.05;;;0.70;;
75059;SDS011;63640;59.264;18.116;2023-02-28T13:50:23;3.85;;;0.90;;
75059;SDS011;63640;59.264;18.116;2023-02-28T13:58:09;1.88;;;0.70;;
75059;SDS011;63640;59.264;18.116;2023-02-28T14:06:48;1.75;;;0.47;;
75059;SDS011;63640;59.264;18.116;2023-02-28T14:11:54;3.58;;;0.60;;
75059;SDS011;63640;59.264;18.116;2023-02-28T14:17:02;4.55;;;0.70;;
75059;SDS011;63640;59.264;18.116;2023-02-28T14:19:29;4.60;;;0.98;;
75059;SDS011;63640;59.264;18.116;2023-02-28T14:33:35;2.72;;;0.57;;
75059;SDS011;63640;59.264;18.116;2023-02-28T14:36:35;2.13;;;0.88;;
75059;SDS011;63640;59.264;18.116;2023-02-28T14:39:06;2.50;;;1.10;;
75059;SDS011;63640;59.264;18.116;2023-02-28T14:41:37;3.28;;;0.90;;
75059;SDS011;63640;59.264;18.116;2023-02-28T14:44:37;1.38;;;0.50;;
75059;SDS011;63640;59.264;18.116;2023-02-28T14:46:57;2.17;;;0.80;;
75059;SDS011;63640;59.264;18.116;2023-02-28T14:49:30;3.05;;;0.63;;
75059;SDS011;63640;59.264;18.116;2023-02-28T14:52:23;3.38;;;1.15;;
75059;SDS011;63640;59.264;18.116;2023-02-28T14:54:53;5.40;;;0.80;;
75059;SDS011;63640;59.264;18.116;2023-02-28T14:57:30;3.25;;;0.73;;
75059;SDS011;63640;59.264;18.116;2023-02-28T15:00:31;5.97;;;0.80;;
75059;SDS011;63640;59.264;18.116;2023-02-28T15:02:50;2.45;;;0.80;;
75059;SDS011;63640;59.264;18.116;2023-02-28T15:05:25;3.80;;;1.27;;
75059;SDS011;63640;59.264;18.116;2023-02-28T15:08:12;6.20;;;1.30;;
75059;SDS011;63640;59.264;18.116;2023-02-28T15:10:43;8.38;;;1.38;;
75059;SDS011;63640;59.264;18.116;2023-02-28T15:13:11;4.63;;;0.90;;
75059;SDS011;63640;59.264;18.116;2023-02-28T15:15:47;3.95;;;1.17;;
75059;SDS011;63640;59.264;18.116;2023-02-28T15:18:15;8.90;;;1.20;;
75059;SDS011;63640;59.264;18.116;2023-02-28T15:21:05;3.85;;;1.20;;
75059;SDS011;63640;59.264;18.116;2023-02-28T15:23:32;4.68;;;0.90;;
75059;SDS011;63640;59.264;18.116;2023-02-28T15:25:59;3.90;;;0.77;;
75059;SDS011;63640;59.264;18.116;2023-02-28T15:28:25;7.40;;;1.20;;
75059;SDS011;63640;59.264;18.116;2023-02-28T15:30:52;4.00;;;1.00;;
75059;SDS011;63640;59.264;18.116;2023-02-28T15:33:21;4.95;;;0.93;;
75059;SDS011;63640;59.264;18.116;2023-02-28T15:36:13;4.22;;;0.90;;
75059;SDS011;63640;59.264;18.116;2023-02-28T15:38:40;9.55;;;1.00;;
75059;SDS011;63640;59.264;18.116;2023-02-28T15:41:20;3.88;;;0.70;;
75059;SDS011;63640;59.264;18.116;2023-02-28T15:43:49;2.85;;;0.93;;
75059;SDS011;63640;59.264;18.116;2023-02-28T15:47:05;6.95;;;1.10;;
75059;SDS011;63640;59.264;18.116;2023-02-28T15:49:44;6.35;;;0.90;;
75059;SDS011;63640;59.264;18.116;2023-02-28T15:52:13;2.22;;;0.80;;
75059;SDS011;63640;59.264;18.116;2023-02-28T15:54:44;4.15;;;1.48;;
75059;SDS011;63640;59.264;18.116;2023-02-28T15:57:16;5.82;;;0.98;;
75059;SDS011;63640;59.264;18.116;2023-02-28T15:59:48;5.57;;;0.90;;
75059;SDS011;63640;59.264;18.116;2023-02-28T16:02:19;4.70;;;1.15;;
75059;SDS011;63640;59.264;18.116;2023-02-28T16:07:34;2.35;;;0.70;;
75059;SDS011;63640;59.264;18.116;2023-02-28T16:10:03;3.65;;;1.02;;
75059;SDS011;63640;59.264;18.116;2023-02-28T16:12:31;3.63;;;0.98;;
75059;SDS011;63640;59.264;18.116;2023-02-28T16:14:59;4.25;;;0.90;;
75059;SDS011;63640;59.264;18.116;2023-02-28T16:17:28;7.00;;;0.75;;
75059;SDS011;63640;59.264;18.116;2023-02-28T16:19:56;3.00;;;0.80;;
75059;SDS011;63640;59.264;18.116;2023-02-28T16:22:22;5.15;;;1.02;;
75059;SDS011;63640;59.264;18.116;2023-02-28T16:24:48;5.15;;;0.95;;
75059;SDS011;63640;59.264;18.116;2023-02-28T16:27:35;1.98;;;0.50;;
75059;SDS011;63640;59.264;18.116;2023-02-28T16:30:01;4.90;;;1.10;;
75059;SDS011;63640;59.264;18.116;2023-02-28T16:32:28;5.97;;;1.08;;
75059;SDS011;63640;59.264;18.116;2023-02-28T16:34:53;7.80;;;1.08;;
75059;SDS011;63640;59.264;18.116;2023-02-28T16:37:19;8.98;;;2.47;;
75059;SDS011;63640;59.264;18.116;2023-02-28T16:39:44;11.18;;;2.28;;
75059;SDS011;63640;59.264;18.116;2023-02-28T16:42:21;6.68;;;2.50;;
75059;SDS011;63640;59.264;18.116;2023-02-28T16:44:48;8.30;;;1.65;;
75059;SDS011;63640;59.264;18.116;2023-02-28T16:47:14;4.72;;;1.35;;
75059;SDS011;63640;59.264;18.116;2023-02-28T16:49:40;7.75;;;1.10;;
75059;SDS011;63640;59.264;18.116;2023-02-28T16:52:08;3.65;;;1.55;;
75059;SDS011;63640;59.264;18.116;2023-02-28T16:54:34;3.17;;;0.93;;
75059;SDS011;63640;59.264;18.116;2023-02-28T16:57:00;7.57;;;1.85;;
75059;SDS011;63640;59.264;18.116;2023-02-28T16:59:26;4.68;;;1.23;;
75059;SDS011;63640;59.264;18.116;2023-02-28T17:01:52;4.22;;;0.98;;
75059;SDS011;63640;59.264;18.116;2023-02-28T17:04:17;4.78;;;1.30;;
75059;SDS011;63640;59.264;18.116;2023-02-28T17:06:43;4.00;;;1.40;;
75059;SDS011;63640;59.264;18.116;2023-02-28T17:09:18;5.82;;;1.33;;
75059;SDS011;63640;59.264;18.116;2023-02-28T17:11:45;7.22;;;1.45;;
75059;SDS011;63640;59.264;18.116;2023-02-28T17:14:11;5.22;;;1.35;;
75059;SDS011;63640;59.264;18.116;2023-02-28T17:16:38;4.07;;;1.45;;
75059;SDS011;63640;59.264;18.116;2023-02-28T17:19:11;4.75;;;1.50;;
75059;SDS011;63640;59.264;18.116;2023-02-28T17:21:38;6.05;;;1.25;;
75059;SDS011;63640;59.264;18.116;2023-02-28T17:24:07;5.22;;;1.30;;
75059;SDS011;63640;59.264;18.116;2023-02-28T17:26:33;6.80;;;1.50;;
75059;SDS011;63640;59.264;18.116;2023-02-28T17:28:58;4.93;;;1.33;;
75059;SDS011;63640;59.264;18.116;2023-02-28T17:31:24;4.78;;;1.65;;
75059;SDS011;63640;59.264;18.116;2023-02-28T17:33:51;5.53;;;1.80;;
75059;SDS011;63640;59.264;18.116;2023-02-28T17:36:21;4.18;;;1.30;;
75059;SDS011;63640;59.264;18.116;2023-02-28T17:38:51;3.90;;;1.10;;